sensor_id;sensor_type;location;lat;lon;timestamp;P1;durP1;ratioP1;P2;durP2;ratioP2
10910;SDS011;5508;49.150;11.030;2022-11-27T00:01:26;19.53;;;12.67;;
10910;SDS011;5508;49.150;11.030;2022-11-27T00:04:28;23.27;;;12.83;;
10910;SDS011;5508;49.150;11.030;2022-11-27T00:07:28;18.47;;;13.30;;
10910;SDS011;5508;49.150;11.030;2022-11-27T00:10:29;22.57;;;14.33;;
10910;SDS011;5508;49.150;11.030;2022-11-27T00:13:29;22.93;;;13.63;;
10910;SDS011;5508;49.150;11.030;2022-11-27T00:16:30;22.63;;;14.20;;
10910;SDS011;5508;49.150;11.030;2022-11-27T00:19:31;21.13;;;13.80;;
10910;SDS011;5508;49.150;11.030;2022-11-27T00:22:32;19.27;;;13.33;;
10910;SDS011;5508;49.150;11.030;2022-11-27T00:25:32;19.27;;;12.97;;
10910;SDS011;5508;49.150;11.030;2022-11-27T00:28:33;15.30;;;11.33;;
10910;SDS011;5508;49.150;11.030;2022-11-27T00:31:34;17.00;;;12.47;;
10910;SDS011;5508;49.150;11.030;2022-11-27T00:34:36;21.43;;;13.07;;
10910;SDS011;5508;49.150;11.030;2022-11-27T00:37:36;16.27;;;11.03;;
10910;SDS011;5508;49.150;11.030;2022-11-27T00:40:37;17.63;;;10.73;;
10910;SDS011;5508;49.150;11.030;2022-11-27T00:43:38;17.43;;;10.30;;
10910;SDS011;5508;49.150;11.030;2022-11-27T00:46:38;16.97;;;9.97;;
10910;SDS011;5508;49.150;11.030;2022-11-27T00:49:40;17.23;;;9.27;;
10910;SDS011;5508;49.150;11.030;2022-11-27T00:52:41;15.97;;;9.77;;
10910;SDS011;5508;49.150;11.030;2022-11-27T00:55:41;16.93;;;10.90;;
10910;SDS011;5508;49.150;11.030;2022-11-27T00:58:44;21.13;;;11.53;;
10910;SDS011;5508;49.150;11.030;2022-11-27T01:01:45;17.40;;;9.83;;
10910;SDS011;5508;49.150;11.030;2022-11-27T01:04:47;20.70;;;10.53;;
10910;SDS011;5508;49.150;11.030;2022-11-27T01:07:47;28.13;;;11.93;;
10910;SDS011;5508;49.150;11.030;2022-11-27T01:10:49;29.77;;;11.80;;
10910;SDS011;5508;49.150;11.030;2022-11-27T01:13:56;33.17;;;12.60;;
10910;SDS011;5508;49.150;11.030;2022-11-27T01:17:03;67.17;;;12.70;;
10910;SDS011;5508;49.150;11.030;2022-11-27T01:20:03;139.03;;;14.70;;
10910;SDS011;5508;49.150;11.030;2022-11-27T01:23:05;110.57;;;13.43;;
10910;SDS011;5508;49.150;11.030;2022-11-27T01:26:07;46.47;;;11.57;;
10910;SDS011;5508;49.150;11.030;2022-11-27T01:29:09;38.87;;;11.63;;
10910;SDS011;5508;49.150;11.030;2022-11-27T01:32:09;35.80;;;9.77;;
10910;SDS011;5508;49.150;11.030;2022-11-27T01:35:10;54.43;;;11.10;;
10910;SDS011;5508;49.150;11.030;2022-11-27T01:38:11;53.77;;;11.17;;
10910;SDS011;5508;49.150;11.030;2022-11-27T01:47:35;69.47;;;13.47;;
10910;SDS011;5508;49.150;11.030;2022-11-27T01:50:39;114.77;;;15.73;;
10910;SDS011;5508;49.150;11.030;2022-11-27T01:53:40;71.90;;;13.73;;
10910;SDS011;5508;49.150;11.030;2022-11-27T01:56:42;46.63;;;12.03;;
10910;SDS011;5508;49.150;11.030;2022-11-27T01:59:45;45.37;;;12.83;;
10910;SDS011;5508;49.150;11.030;2022-11-27T02:02:48;57.13;;;11.93;;
10910;SDS011;5508;49.150;11.030;2022-11-27T02:05:48;39.57;;;12.03;;
10910;SDS011;5508;49.150;11.030;2022-11-27T02:08:49;39.27;;;11.60;;
10910;SDS011;5508;49.150;11.030;2022-11-27T02:11:53;49.37;;;13.30;;
10910;SDS011;5508;49.150;11.030;2022-11-27T02:21:37;32.03;;;11.80;;
10910;SDS011;5508;49.150;11.030;2022-11-27T02:24:49;71.10;;;14.23;;
10910;SDS011;5508;49.150;11.030;2022-11-27T02:31:14;85.50;;;14.60;;
10910;SDS011;5508;49.150;11.030;2022-11-27T02:34:28;89.83;;;15.07;;
10910;SDS011;5508;49.150;11.030;2022-11-27T02:40:38;146.43;;;14.83;;
10910;SDS011;5508;49.150;11.030;2022-11-27T02:43:47;239.93;;;17.90;;
10910;SDS011;5508;49.150;11.030;2022-11-27T02:46:49;162.37;;;14.70;;
10910;SDS011;5508;49.150;11.030;2022-11-27T02:49:50;136.80;;;15.33;;
10910;SDS011;5508;49.150;11.030;2022-11-27T02:52:52;161.47;;;14.83;;
10910;SDS011;5508;49.150;11.030;2022-11-27T02:55:56;87.97;;;12.27;;
10910;SDS011;5508;49.150;11.030;2022-11-27T02:58:59;51.10;;;10.40;;
10910;SDS011;5508;49.150;11.030;2022-11-27T03:02:05;102.13;;;13.57;;
10910;SDS011;5508;49.150;11.030;2022-11-27T03:05:10;123.87;;;13.47;;
10910;SDS011;5508;49.150;11.030;2022-11-27T03:11:53;193.57;;;13.77;;
10910;SDS011;5508;49.150;11.030;2022-11-27T03:14:55;100.70;;;11.87;;
10910;SDS011;5508;49.150;11.030;2022-11-27T03:18:01;65.23;;;10.13;;
10910;SDS011;5508;49.150;11.030;2022-11-27T03:21:33;95.57;;;11.17;;
10910;SDS011;5508;49.150;11.030;2022-11-27T03:24:35;114.47;;;12.33;;
10910;SDS011;5508;49.150;11.030;2022-11-27T03:27:40;127.77;;;12.20;;
10910;SDS011;5508;49.150;11.030;2022-11-27T03:30:46;96.13;;;25.40;;
10910;SDS011;5508;49.150;11.030;2022-11-27T03:33:47;108.27;;;13.23;;
10910;SDS011;5508;49.150;11.030;2022-11-27T03:36:47;157.97;;;12.27;;
10910;SDS011;5508;49.150;11.030;2022-11-27T03:39:48;63.10;;;10.70;;
10910;SDS011;5508;49.150;11.030;2022-11-27T03:46:22;75.00;;;12.60;;
10910;SDS011;5508;49.150;11.030;2022-11-27T03:56:16;69.80;;;10.70;;
10910;SDS011;5508;49.150;11.030;2022-11-27T03:59:38;80.73;;;11.00;;
10910;SDS011;5508;49.150;11.030;2022-11-27T04:02:43;73.67;;;9.87;;
10910;SDS011;5508;49.150;11.030;2022-11-27T04:05:46;80.77;;;14.07;;
10910;SDS011;5508;49.150;11.030;2022-11-27T04:08:47;85.13;;;13.47;;
10910;SDS011;5508;49.150;11.030;2022-11-27T04:11:48;71.20;;;14.77;;
10910;SDS011;5508;49.150;11.030;2022-11-27T04:14:49;79.00;;;12.83;;
10910;SDS011;5508;49.150;11.030;2022-11-27T04:17:49;115.67;;;13.23;;
10910;SDS011;5508;49.150;11.030;2022-11-27T04:20:50;79.97;;;11.97;;
10910;SDS011;5508;49.150;11.030;2022-11-27T04:23:50;162.17;;;16.17;;
10910;SDS011;5508;49.150;11.030;2022-11-27T04:26:51;137.43;;;18.03;;
10910;SDS011;5508;49.150;11.030;2022-11-27T04:29:52;107.40;;;13.70;;
10910;SDS011;5508;49.150;11.030;2022-11-27T04:32:52;63.73;;;12.40;;
10910;SDS011;5508;49.150;11.030;2022-11-27T04:35:53;55.90;;;11.60;;
10910;SDS011;5508;49.150;11.030;2022-11-27T04:38:53;56.83;;;10.17;;
10910;SDS011;5508;49.150;11.030;2022-11-27T04:41:54;42.37;;;10.10;;
10910;SDS011;5508;49.150;11.030;2022-11-27T04:44:54;45.70;;;11.03;;
10910;SDS011;5508;49.150;11.030;2022-11-27T04:47:55;59.90;;;10.70;;
10910;SDS011;5508;49.150;11.030;2022-11-27T04:50:56;70.30;;;10.63;;
10910;SDS011;5508;49.150;11.030;2022-11-27T04:53:56;53.77;;;10.10;;
10910;SDS011;5508;49.150;11.030;2022-11-27T04:56:57;47.73;;;10.93;;
10910;SDS011;5508;49.150;11.030;2022-11-27T04:59:57;87.43;;;10.17;;
10910;SDS011;5508;49.150;11.030;2022-11-27T05:02:58;61.80;;;10.30;;
10910;SDS011;5508;49.150;11.030;2022-11-27T05:05:58;51.00;;;10.63;;
10910;SDS011;5508;49.150;11.030;2022-11-27T05:08:59;60.30;;;10.57;;
10910;SDS011;5508;49.150;11.030;2022-11-27T05:12:01;110.67;;;12.37;;
10910;SDS011;5508;49.150;11.030;2022-11-27T05:15:01;43.30;;;8.87;;
10910;SDS011;5508;49.150;11.030;2022-11-27T05:18:02;43.70;;;8.90;;
10910;SDS011;5508;49.150;11.030;2022-11-27T05:21:04;55.67;;;11.47;;
10910;SDS011;5508;49.150;11.030;2022-11-27T05:24:06;113.33;;;12.17;;
10910;SDS011;5508;49.150;11.030;2022-11-27T05:27:07;61.37;;;10.17;;
10910;SDS011;5508;49.150;11.030;2022-11-27T05:30:09;52.90;;;15.63;;
10910;SDS011;5508;49.150;11.030;2022-11-27T05:33:10;58.70;;;10.80;;
10910;SDS011;5508;49.150;11.030;2022-11-27T05:36:10;73.87;;;11.53;;
10910;SDS011;5508;49.150;11.030;2022-11-27T05:39:11;65.93;;;9.90;;
10910;SDS011;5508;49.150;11.030;2022-11-27T05:42:11;58.47;;;9.10;;
10910;SDS011;5508;49.150;11.030;2022-11-27T05:45:12;97.93;;;10.27;;
10910;SDS011;5508;49.150;11.030;2022-11-27T05:48:13;165.23;;;11.90;;
10910;SDS011;5508;49.150;11.030;2022-11-27T05:51:14;55.10;;;9.13;;
10910;SDS011;5508;49.150;11.030;2022-11-27T05:54:15;53.17;;;9.13;;
10910;SDS011;5508;49.150;11.030;2022-11-27T05:57:15;39.07;;;8.97;;
10910;SDS011;5508;49.150;11.030;2022-11-27T06:00:16;36.90;;;9.30;;
10910;SDS011;5508;49.150;11.030;2022-11-27T06:03:17;43.60;;;9.23;;
10910;SDS011;5508;49.150;11.030;2022-11-27T06:06:18;105.10;;;10.03;;
10910;SDS011;5508;49.150;11.030;2022-11-27T06:09:19;47.70;;;9.13;;
10910;SDS011;5508;49.150;11.030;2022-11-27T06:12:20;60.20;;;9.40;;
10910;SDS011;5508;49.150;11.030;2022-11-27T06:15:20;36.63;;;9.50;;
10910;SDS011;5508;49.150;11.030;2022-11-27T06:18:21;83.57;;;10.40;;
10910;SDS011;5508;49.150;11.030;2022-11-27T06:21:22;31.83;;;10.23;;
10910;SDS011;5508;49.150;11.030;2022-11-27T06:24:23;68.83;;;10.57;;
10910;SDS011;5508;49.150;11.030;2022-11-27T06:27:23;81.53;;;20.73;;
10910;SDS011;5508;49.150;11.030;2022-11-27T06:30:24;93.23;;;16.43;;
10910;SDS011;5508;49.150;11.030;2022-11-27T06:33:25;82.87;;;15.83;;
10910;SDS011;5508;49.150;11.030;2022-11-27T06:36:26;42.83;;;11.37;;
10910;SDS011;5508;49.150;11.030;2022-11-27T06:39:29;105.00;;;14.67;;
10910;SDS011;5508;49.150;11.030;2022-11-27T06:42:29;88.20;;;15.13;;
10910;SDS011;5508;49.150;11.030;2022-11-27T06:45:30;81.27;;;19.17;;
10910;SDS011;5508;49.150;11.030;2022-11-27T06:48:31;78.23;;;13.77;;
10910;SDS011;5508;49.150;11.030;2022-11-27T06:51:32;81.80;;;13.40;;
10910;SDS011;5508;49.150;11.030;2022-11-27T06:54:33;85.30;;;16.10;;
10910;SDS011;5508;49.150;11.030;2022-11-27T06:57:34;66.83;;;17.37;;
10910;SDS011;5508;49.150;11.030;2022-11-27T07:00:34;69.03;;;15.53;;
10910;SDS011;5508;49.150;11.030;2022-11-27T07:03:35;107.07;;;22.53;;
10910;SDS011;5508;49.150;11.030;2022-11-27T07:06:35;111.30;;;18.30;;
10910;SDS011;5508;49.150;11.030;2022-11-27T07:09:37;116.53;;;22.47;;
10910;SDS011;5508;49.150;11.030;2022-11-27T07:12:37;91.23;;;22.17;;
10910;SDS011;5508;49.150;11.030;2022-11-27T07:15:38;85.37;;;25.90;;
10910;SDS011;5508;49.150;11.030;2022-11-27T07:18:39;100.03;;;27.13;;
10910;SDS011;5508;49.150;11.030;2022-11-27T07:21:42;109.97;;;32.93;;
10910;SDS011;5508;49.150;11.030;2022-11-27T07:24:42;37.80;;;18.13;;
10910;SDS011;5508;49.150;11.030;2022-11-27T07:27:43;69.87;;;20.53;;
10910;SDS011;5508;49.150;11.030;2022-11-27T07:30:43;46.67;;;19.20;;
10910;SDS011;5508;49.150;11.030;2022-11-27T07:33:44;39.03;;;18.77;;
10910;SDS011;5508;49.150;11.030;2022-11-27T07:36:45;40.80;;;23.30;;
10910;SDS011;5508;49.150;11.030;2022-11-27T07:39:45;40.00;;;23.43;;
10910;SDS011;5508;49.150;11.030;2022-11-27T07:42:46;32.20;;;20.03;;
10910;SDS011;5508;49.150;11.030;2022-11-27T07:45:46;34.47;;;21.33;;
10910;SDS011;5508;49.150;11.030;2022-11-27T07:48:47;40.53;;;23.57;;
10910;SDS011;5508;49.150;11.030;2022-11-27T07:51:48;29.10;;;19.67;;
10910;SDS011;5508;49.150;11.030;2022-11-27T07:54:48;40.27;;;23.83;;
10910;SDS011;5508;49.150;11.030;2022-11-27T07:57:49;39.00;;;27.20;;
10910;SDS011;5508;49.150;11.030;2022-11-27T08:00:50;31.67;;;22.10;;
10910;SDS011;5508;49.150;11.030;2022-11-27T08:03:50;34.50;;;21.40;;
10910;SDS011;5508;49.150;11.030;2022-11-27T08:06:51;27.10;;;15.47;;
10910;SDS011;5508;49.150;11.030;2022-11-27T08:09:52;25.73;;;15.87;;
10910;SDS011;5508;49.150;11.030;2022-11-27T08:12:52;32.17;;;16.27;;
10910;SDS011;5508;49.150;11.030;2022-11-27T08:15:53;30.07;;;15.27;;
10910;SDS011;5508;49.150;11.030;2022-11-27T08:18:53;30.13;;;16.97;;
10910;SDS011;5508;49.150;11.030;2022-11-27T08:21:54;32.10;;;18.57;;
10910;SDS011;5508;49.150;11.030;2022-11-27T08:24:56;32.27;;;21.90;;
10910;SDS011;5508;49.150;11.030;2022-11-27T08:27:57;43.63;;;27.87;;
10910;SDS011;5508;49.150;11.030;2022-11-27T08:30:58;35.87;;;23.97;;
10910;SDS011;5508;49.150;11.030;2022-11-27T08:34:01;33.03;;;20.23;;
10910;SDS011;5508;49.150;11.030;2022-11-27T08:37:05;30.50;;;19.40;;
10910;SDS011;5508;49.150;11.030;2022-11-27T08:40:06;35.00;;;21.67;;
10910;SDS011;5508;49.150;11.030;2022-11-27T08:43:07;36.60;;;21.70;;
10910;SDS011;5508;49.150;11.030;2022-11-27T08:46:07;30.43;;;15.00;;
10910;SDS011;5508;49.150;11.030;2022-11-27T08:49:08;32.17;;;15.73;;
10910;SDS011;5508;49.150;11.030;2022-11-27T08:52:09;25.03;;;12.20;;
10910;SDS011;5508;49.150;11.030;2022-11-27T08:55:10;24.50;;;13.77;;
10910;SDS011;5508;49.150;11.030;2022-11-27T08:58:11;22.43;;;12.13;;
10910;SDS011;5508;49.150;11.030;2022-11-27T09:01:15;27.67;;;15.60;;
10910;SDS011;5508;49.150;11.030;2022-11-27T09:04:18;27.13;;;14.93;;
10910;SDS011;5508;49.150;11.030;2022-11-27T09:07:19;26.97;;;14.33;;
10910;SDS011;5508;49.150;11.030;2022-11-27T09:10:20;26.80;;;16.07;;
10910;SDS011;5508;49.150;11.030;2022-11-27T09:13:20;25.60;;;16.80;;
10910;SDS011;5508;49.150;11.030;2022-11-27T09:16:22;26.50;;;14.07;;
10910;SDS011;5508;49.150;11.030;2022-11-27T09:19:23;28.67;;;15.47;;
10910;SDS011;5508;49.150;11.030;2022-11-27T09:22:24;20.87;;;12.27;;
10910;SDS011;5508;49.150;11.030;2022-11-27T09:25:25;22.27;;;14.57;;
10910;SDS011;5508;49.150;11.030;2022-11-27T09:28:26;15.87;;;9.27;;
10910;SDS011;5508;49.150;11.030;2022-11-27T09:31:26;61.90;;;44.47;;
10910;SDS011;5508;49.150;11.030;2022-11-27T09:34:27;28.03;;;20.37;;
10910;SDS011;5508;49.150;11.030;2022-11-27T09:37:27;19.17;;;13.37;;
10910;SDS011;5508;49.150;11.030;2022-11-27T09:40:28;31.13;;;24.97;;
10910;SDS011;5508;49.150;11.030;2022-11-27T09:43:30;31.30;;;22.30;;
10910;SDS011;5508;49.150;11.030;2022-11-27T09:46:34;13.97;;;9.27;;
10910;SDS011;5508;49.150;11.030;2022-11-27T09:49:48;11.80;;;8.47;;
10910;SDS011;5508;49.150;11.030;2022-11-27T09:56:16;15.40;;;10.50;;
10910;SDS011;5508;49.150;11.030;2022-11-27T09:59:20;16.20;;;9.50;;
10910;SDS011;5508;49.150;11.030;2022-11-27T10:02:29;14.63;;;8.97;;
10910;SDS011;5508;49.150;11.030;2022-11-27T10:05:32;14.00;;;9.17;;
10910;SDS011;5508;49.150;11.030;2022-11-27T10:12:27;13.13;;;9.70;;
10910;SDS011;5508;49.150;11.030;2022-11-27T10:15:34;12.90;;;9.90;;
10910;SDS011;5508;49.150;11.030;2022-11-27T10:18:41;21.93;;;18.17;;
10910;SDS011;5508;49.150;11.030;2022-11-27T10:25:46;22.93;;;18.43;;
10910;SDS011;5508;49.150;11.030;2022-11-27T10:29:01;11.57;;;8.73;;
10910;SDS011;5508;49.150;11.030;2022-11-27T10:32:16;12.70;;;8.90;;
10910;SDS011;5508;49.150;11.030;2022-11-27T10:35:23;12.30;;;8.87;;
10910;SDS011;5508;49.150;11.030;2022-11-27T10:38:30;15.47;;;9.23;;
10910;SDS011;5508;49.150;11.030;2022-11-27T10:41:42;15.90;;;11.73;;
10910;SDS011;5508;49.150;11.030;2022-11-27T10:44:52;11.47;;;8.17;;
10910;SDS011;5508;49.150;11.030;2022-11-27T10:47:58;11.43;;;8.47;;
10910;SDS011;5508;49.150;11.030;2022-11-27T10:50:59;10.77;;;7.77;;
10910;SDS011;5508;49.150;11.030;2022-11-27T10:54:00;16.27;;;11.20;;
10910;SDS011;5508;49.150;11.030;2022-11-27T11:00:40;14.07;;;11.33;;
10910;SDS011;5508;49.150;11.030;2022-11-27T11:03:41;14.93;;;12.40;;
10910;SDS011;5508;49.150;11.030;2022-11-27T11:06:43;16.20;;;12.67;;
10910;SDS011;5508;49.150;11.030;2022-11-27T11:09:45;14.90;;;10.90;;
10910;SDS011;5508;49.150;11.030;2022-11-27T11:12:47;10.80;;;9.03;;
10910;SDS011;5508;49.150;11.030;2022-11-27T11:15:49;12.10;;;8.77;;
10910;SDS011;5508;49.150;11.030;2022-11-27T11:18:50;13.83;;;9.77;;
10910;SDS011;5508;49.150;11.030;2022-11-27T11:21:53;10.20;;;8.30;;
10910;SDS011;5508;49.150;11.030;2022-11-27T11:24:53;14.40;;;9.97;;
10910;SDS011;5508;49.150;11.030;2022-11-27T11:27:54;14.80;;;10.10;;
10910;SDS011;5508;49.150;11.030;2022-11-27T11:30:56;14.93;;;10.93;;
10910;SDS011;5508;49.150;11.030;2022-11-27T11:40:33;15.07;;;11.40;;
10910;SDS011;5508;49.150;11.030;2022-11-27T11:43:36;15.17;;;10.53;;
10910;SDS011;5508;49.150;11.030;2022-11-27T11:46:36;14.20;;;11.40;;
10910;SDS011;5508;49.150;11.030;2022-11-27T11:49:39;15.20;;;11.93;;
10910;SDS011;5508;49.150;11.030;2022-11-27T12:02:44;8.13;;;6.97;;
10910;SDS011;5508;49.150;11.030;2022-11-27T12:06:14;9.50;;;7.97;;
10910;SDS011;5508;49.150;11.030;2022-11-27T12:15:54;12.97;;;9.83;;
10910;SDS011;5508;49.150;11.030;2022-11-27T12:26:04;14.97;;;12.37;;
10910;SDS011;5508;49.150;11.030;2022-11-27T12:42:29;14.57;;;11.63;;
10910;SDS011;5508;49.150;11.030;2022-11-27T12:45:40;15.10;;;11.57;;
10910;SDS011;5508;49.150;11.030;2022-11-27T12:48:46;15.37;;;10.93;;
10910;SDS011;5508;49.150;11.030;2022-11-27T12:51:54;13.50;;;9.87;;
10910;SDS011;5508;49.150;11.030;2022-11-27T12:58:16;12.33;;;9.63;;
10910;SDS011;5508;49.150;11.030;2022-11-27T13:01:31;13.77;;;10.00;;
10910;SDS011;5508;49.150;11.030;2022-11-27T13:04:43;10.67;;;8.37;;
10910;SDS011;5508;49.150;11.030;2022-11-27T13:07:54;11.13;;;9.20;;
10910;SDS011;5508;49.150;11.030;2022-11-27T13:11:04;11.90;;;9.50;;
10910;SDS011;5508;49.150;11.030;2022-11-27T13:14:17;12.80;;;10.33;;
10910;SDS011;5508;49.150;11.030;2022-11-27T13:17:20;10.50;;;8.27;;
10910;SDS011;5508;49.150;11.030;2022-11-27T13:20:34;13.20;;;9.10;;
10910;SDS011;5508;49.150;11.030;2022-11-27T13:23:37;10.73;;;9.63;;
10910;SDS011;5508;49.150;11.030;2022-11-27T13:26:42;10.77;;;9.50;;
10910;SDS011;5508;49.150;11.030;2022-11-27T13:30:05;10.07;;;8.57;;
10910;SDS011;5508;49.150;11.030;2022-11-27T13:33:14;10.37;;;8.57;;
10910;SDS011;5508;49.150;11.030;2022-11-27T13:36:38;12.80;;;9.60;;
10910;SDS011;5508;49.150;11.030;2022-11-27T13:39:40;11.70;;;9.40;;
10910;SDS011;5508;49.150;11.030;2022-11-27T13:42:46;13.63;;;9.63;;
10910;SDS011;5508;49.150;11.030;2022-11-27T13:45:49;12.37;;;9.27;;
10910;SDS011;5508;49.150;11.030;2022-11-27T13:48:54;12.13;;;10.43;;
10910;SDS011;5508;49.150;11.030;2022-11-27T13:52:23;12.97;;;9.93;;
10910;SDS011;5508;49.150;11.030;2022-11-27T13:55:24;16.37;;;14.50;;
10910;SDS011;5508;49.150;11.030;2022-11-27T13:58:38;15.57;;;13.23;;
10910;SDS011;5508;49.150;11.030;2022-11-27T14:01:51;15.00;;;11.33;;
10910;SDS011;5508;49.150;11.030;2022-11-27T14:04:58;12.43;;;10.47;;
10910;SDS011;5508;49.150;11.030;2022-11-27T14:07:59;11.50;;;9.80;;
10910;SDS011;5508;49.150;11.030;2022-11-27T14:11:04;9.93;;;8.50;;
10910;SDS011;5508;49.150;11.030;2022-11-27T14:14:18;12.93;;;10.10;;
10910;SDS011;5508;49.150;11.030;2022-11-27T14:17:38;10.57;;;9.27;;
10910;SDS011;5508;49.150;11.030;2022-11-27T14:20:45;12.60;;;9.03;;
10910;SDS011;5508;49.150;11.030;2022-11-27T14:23:58;12.67;;;9.23;;
10910;SDS011;5508;49.150;11.030;2022-11-27T14:26:59;10.13;;;9.03;;
10910;SDS011;5508;49.150;11.030;2022-11-27T14:30:10;10.17;;;8.90;;
10910;SDS011;5508;49.150;11.030;2022-11-27T14:33:26;11.07;;;9.47;;
10910;SDS011;5508;49.150;11.030;2022-11-27T14:36:28;10.97;;;9.47;;
10910;SDS011;5508;49.150;11.030;2022-11-27T14:39:34;10.20;;;8.77;;
10910;SDS011;5508;49.150;11.030;2022-11-27T14:42:36;9.50;;;8.60;;
10910;SDS011;5508;49.150;11.030;2022-11-27T14:45:36;17.33;;;12.10;;
10910;SDS011;5508;49.150;11.030;2022-11-27T14:48:45;11.47;;;10.27;;
10910;SDS011;5508;49.150;11.030;2022-11-27T14:51:47;10.57;;;9.20;;
10910;SDS011;5508;49.150;11.030;2022-11-27T14:54:49;11.47;;;9.27;;
10910;SDS011;5508;49.150;11.030;2022-11-27T14:57:50;11.20;;;9.63;;
10910;SDS011;5508;49.150;11.030;2022-11-27T15:00:54;10.03;;;8.70;;
10910;SDS011;5508;49.150;11.030;2022-11-27T15:04:01;10.53;;;9.40;;
10910;SDS011;5508;49.150;11.030;2022-11-27T15:07:21;10.87;;;9.60;;
10910;SDS011;5508;49.150;11.030;2022-11-27T15:10:31;12.63;;;11.30;;
10910;SDS011;5508;49.150;11.030;2022-11-27T15:13:37;12.50;;;10.93;;
10910;SDS011;5508;49.150;11.030;2022-11-27T15:16:39;12.40;;;11.10;;
10910;SDS011;5508;49.150;11.030;2022-11-27T15:19:45;12.93;;;10.20;;
10910;SDS011;5508;49.150;11.030;2022-11-27T15:22:49;15.73;;;12.30;;
10910;SDS011;5508;49.150;11.030;2022-11-27T15:32:47;14.23;;;11.50;;
10910;SDS011;5508;49.150;11.030;2022-11-27T15:35:52;14.20;;;10.90;;
10910;SDS011;5508;49.150;11.030;2022-11-27T15:39:02;13.37;;;11.10;;
10910;SDS011;5508;49.150;11.030;2022-11-27T15:42:07;14.00;;;11.20;;
10910;SDS011;5508;49.150;11.030;2022-11-27T15:45:10;15.83;;;12.00;;
10910;SDS011;5508;49.150;11.030;2022-11-27T15:48:15;16.07;;;12.43;;
10910;SDS011;5508;49.150;11.030;2022-11-27T15:51:17;15.20;;;11.93;;
10910;SDS011;5508;49.150;11.030;2022-11-27T15:54:17;17.20;;;12.13;;
10910;SDS011;5508;49.150;11.030;2022-11-27T15:57:18;14.50;;;11.83;;
10910;SDS011;5508;49.150;11.030;2022-11-27T16:00:19;15.53;;;11.73;;
10910;SDS011;5508;49.150;11.030;2022-11-27T16:03:21;18.20;;;13.57;;
10910;SDS011;5508;49.150;11.030;2022-11-27T16:06:21;19.30;;;14.03;;
10910;SDS011;5508;49.150;11.030;2022-11-27T16:09:23;16.97;;;13.77;;
10910;SDS011;5508;49.150;11.030;2022-11-27T16:12:24;17.83;;;14.53;;
10910;SDS011;5508;49.150;11.030;2022-11-27T16:15:24;17.70;;;14.77;;
10910;SDS011;5508;49.150;11.030;2022-11-27T16:18:25;18.97;;;14.87;;
10910;SDS011;5508;49.150;11.030;2022-11-27T16:21:26;17.83;;;13.83;;
10910;SDS011;5508;49.150;11.030;2022-11-27T16:24:28;20.80;;;13.43;;
10910;SDS011;5508;49.150;11.030;2022-11-27T16:27:28;16.00;;;13.83;;
10910;SDS011;5508;49.150;11.030;2022-11-27T16:30:29;17.43;;;12.87;;
10910;SDS011;5508;49.150;11.030;2022-11-27T16:33:30;16.73;;;13.90;;
10910;SDS011;5508;49.150;11.030;2022-11-27T16:36:31;17.07;;;14.30;;
10910;SDS011;5508;49.150;11.030;2022-11-27T16:39:32;18.10;;;13.93;;
10910;SDS011;5508;49.150;11.030;2022-11-27T16:42:32;19.23;;;15.23;;
10910;SDS011;5508;49.150;11.030;2022-11-27T16:45:34;20.53;;;15.30;;
10910;SDS011;5508;49.150;11.030;2022-11-27T16:48:36;17.90;;;15.13;;
10910;SDS011;5508;49.150;11.030;2022-11-27T16:51:38;17.73;;;15.03;;
10910;SDS011;5508;49.150;11.030;2022-11-27T16:54:38;21.27;;;15.80;;
10910;SDS011;5508;49.150;11.030;2022-11-27T16:57:39;20.07;;;15.67;;
10910;SDS011;5508;49.150;11.030;2022-11-27T17:00:39;18.33;;;14.80;;
10910;SDS011;5508;49.150;11.030;2022-11-27T17:03:40;22.27;;;16.33;;
10910;SDS011;5508;49.150;11.030;2022-11-27T17:06:41;19.00;;;14.93;;
10910;SDS011;5508;49.150;11.030;2022-11-27T17:09:42;19.43;;;15.13;;
10910;SDS011;5508;49.150;11.030;2022-11-27T17:12:42;20.43;;;15.47;;
10910;SDS011;5508;49.150;11.030;2022-11-27T17:15:43;19.63;;;14.73;;
10910;SDS011;5508;49.150;11.030;2022-11-27T17:18:44;20.57;;;16.13;;
10910;SDS011;5508;49.150;11.030;2022-11-27T17:21:45;18.57;;;15.70;;
10910;SDS011;5508;49.150;11.030;2022-11-27T17:24:45;20.07;;;15.93;;
10910;SDS011;5508;49.150;11.030;2022-11-27T17:27:46;20.63;;;15.97;;
10910;SDS011;5508;49.150;11.030;2022-11-27T17:30:48;21.70;;;15.73;;
10910;SDS011;5508;49.150;11.030;2022-11-27T17:33:48;21.43;;;15.50;;
10910;SDS011;5508;49.150;11.030;2022-11-27T17:36:51;20.10;;;15.50;;
10910;SDS011;5508;49.150;11.030;2022-11-27T17:39:56;16.93;;;14.67;;
10910;SDS011;5508;49.150;11.030;2022-11-27T17:42:56;22.10;;;15.80;;
10910;SDS011;5508;49.150;11.030;2022-11-27T17:45:57;20.33;;;15.73;;
10910;SDS011;5508;49.150;11.030;2022-11-27T17:48:58;18.87;;;15.13;;
10910;SDS011;5508;49.150;11.030;2022-11-27T17:52:00;18.43;;;14.23;;
10910;SDS011;5508;49.150;11.030;2022-11-27T17:55:01;22.97;;;16.50;;
10910;SDS011;5508;49.150;11.030;2022-11-27T17:58:01;19.10;;;14.97;;
10910;SDS011;5508;49.150;11.030;2022-11-27T18:01:04;22.97;;;16.40;;
10910;SDS011;5508;49.150;11.030;2022-11-27T18:04:06;21.07;;;15.47;;
10910;SDS011;5508;49.150;11.030;2022-11-27T18:07:06;22.10;;;17.13;;
10910;SDS011;5508;49.150;11.030;2022-11-27T18:10:07;19.50;;;14.97;;
10910;SDS011;5508;49.150;11.030;2022-11-27T18:13:08;24.17;;;18.33;;
10910;SDS011;5508;49.150;11.030;2022-11-27T18:16:12;24.50;;;17.20;;
10910;SDS011;5508;49.150;11.030;2022-11-27T18:19:18;21.53;;;17.07;;
10910;SDS011;5508;49.150;11.030;2022-11-27T18:22:19;22.67;;;16.33;;
10910;SDS011;5508;49.150;11.030;2022-11-27T18:25:20;26.37;;;19.50;;
10910;SDS011;5508;49.150;11.030;2022-11-27T18:28:20;29.90;;;20.27;;
10910;SDS011;5508;49.150;11.030;2022-11-27T18:31:21;28.40;;;19.23;;
10910;SDS011;5508;49.150;11.030;2022-11-27T18:34:23;27.67;;;17.27;;
10910;SDS011;5508;49.150;11.030;2022-11-27T18:37:23;18.93;;;13.77;;
10910;SDS011;5508;49.150;11.030;2022-11-27T18:40:24;19.80;;;14.47;;
10910;SDS011;5508;49.150;11.030;2022-11-27T18:43:24;18.33;;;14.43;;
10910;SDS011;5508;49.150;11.030;2022-11-27T18:46:25;21.57;;;16.07;;
10910;SDS011;5508;49.150;11.030;2022-11-27T18:49:26;23.30;;;16.03;;
10910;SDS011;5508;49.150;11.030;2022-11-27T18:52:27;21.60;;;15.37;;
10910;SDS011;5508;49.150;11.030;2022-11-27T18:55:30;21.13;;;15.03;;
10910;SDS011;5508;49.150;11.030;2022-11-27T18:58:32;20.00;;;15.97;;
10910;SDS011;5508;49.150;11.030;2022-11-27T19:01:35;22.60;;;15.00;;
10910;SDS011;5508;49.150;11.030;2022-11-27T19:04:37;19.60;;;14.60;;
10910;SDS011;5508;49.150;11.030;2022-11-27T19:07:38;21.17;;;15.57;;
10910;SDS011;5508;49.150;11.030;2022-11-27T19:10:39;22.10;;;16.07;;
10910;SDS011;5508;49.150;11.030;2022-11-27T19:13:40;20.83;;;15.63;;
10910;SDS011;5508;49.150;11.030;2022-11-27T19:16:42;21.77;;;15.63;;
10910;SDS011;5508;49.150;11.030;2022-11-27T19:19:44;23.23;;;16.07;;
10910;SDS011;5508;49.150;11.030;2022-11-27T19:22:45;21.37;;;15.83;;
10910;SDS011;5508;49.150;11.030;2022-11-27T19:25:46;24.20;;;17.37;;
10910;SDS011;5508;49.150;11.030;2022-11-27T19:28:48;19.83;;;16.03;;
10910;SDS011;5508;49.150;11.030;2022-11-27T19:31:53;24.33;;;17.80;;
10910;SDS011;5508;49.150;11.030;2022-11-27T19:34:56;24.27;;;17.33;;